sensor_id;sensor_type;location;lat;lon;timestamp;pressure;altitude;pressure_sealevel;temperature;humidity
74169;BME280;62523;53.336;83.690;2023-01-09T00:00:15;98690.22;;;-5.40;77.13
74169;BME280;62523;53.336;83.690;2023-01-09T00:05:17;98715.06;;;-5.69;76.28
74169;BME280;62523;53.336;83.690;2023-01-09T00:10:18;98730.47;;;-6.23;75.18
74169;BME280;62523;53.336;83.690;2023-01-09T00:15:20;98736.34;;;-6.63;75.02
74169;BME280;62523;53.336;83.690;2023-01-09T00:20:21;98766.84;;;-7.18;72.96
74169;BME280;62523;53.336;83.690;2023-01-09T00:25:22;98772.53;;;-7.59;70.77
74169;BME280;62523;53.336;83.690;2023-01-09T00:30:23;98802.81;;;-8.05;70.74
74169;BME280;62523;53.336;83.690;2023-01-09T00:35:26;98828.91;;;-8.34;71.25
74169;BME280;62523;53.336;83.690;2023-01-09T00:40:28;98849.56;;;-8.87;68.09
74169;BME280;62523;53.336;83.690;2023-01-09T00:45:30;98867.53;;;-9.36;68.37
74169;BME280;62523;53.336;83.690;2023-01-09T00:50:31;98878.91;;;-9.69;70.54
74169;BME280;62523;53.336;83.690;2023-01-09T00:55:34;98917.34;;;-10.03;72.18
74169;BME280;62523;53.336;83.690;2023-01-09T01:00:37;98939.34;;;-10.08;74.01
74169;BME280;62523;53.336;83.690;2023-01-09T01:05:38;98973.34;;;-10.47;74.37
74169;BME280;62523;53.336;83.690;2023-01-09T01:11:03;98989.19;;;-10.61;74.90
74169;BME280;62523;53.336;83.690;2023-01-09T01:16:08;98980.25;;;-10.81;75.13
74169;BME280;62523;53.336;83.690;2023-01-09T01:21:11;98989.19;;;-10.97;75.72
74169;BME280;62523;53.336;83.690;2023-01-09T01:26:15;99002.44;;;-11.10;77.27
74169;BME280;62523;53.336;83.690;2023-01-09T01:31:17;99019.28;;;-11.14;77.63
74169;BME280;62523;53.336;83.690;2023-01-09T01:36:19;99035.63;;;-11.39;76.13
74169;BME280;62523;53.336;83.690;2023-01-09T01:41:20;99037.47;;;-11.65;77.23
74169;BME280;62523;53.336;83.690;2023-01-09T01:46:30;99060.09;;;-11.73;77.79
74169;BME280;62523;53.336;83.690;2023-01-09T01:51:38;99080.69;;;-11.94;78.56
74169;BME280;62523;53.336;83.690;2023-01-09T01:56:44;99097.22;;;-12.08;79.18
74169;BME280;62523;53.336;83.690;2023-01-09T02:01:52;99130.97;;;-12.12;79.37
74169;BME280;62523;53.336;83.690;2023-01-09T02:06:55;99151.59;;;-12.29;78.58
74169;BME280;62523;53.336;83.690;2023-01-09T02:11:57;99165.47;;;-12.70;76.89
74169;BME280;62523;53.336;83.690;2023-01-09T02:17:14;99187.28;;;-12.75;77.56
74169;BME280;62523;53.336;83.690;2023-01-09T02:32:53;99236.88;;;-13.54;76.70
74169;BME280;62523;53.336;83.690;2023-01-09T02:43:34;99239.88;;;-13.86;76.00
74169;BME280;62523;53.336;83.690;2023-01-09T02:48:35;99248.63;;;-14.00;76.69
74169;BME280;62523;53.336;83.690;2023-01-09T02:59:11;99299.13;;;-14.44;77.16
74169;BME280;62523;53.336;83.690;2023-01-09T03:09:33;99327.97;;;-14.98;76.68
74169;BME280;62523;53.336;83.690;2023-01-09T03:14:38;99323.47;;;-15.23;76.33
74169;BME280;62523;53.336;83.690;2023-01-09T03:19:43;99367.00;;;-15.47;75.58
74169;BME280;62523;53.336;83.690;2023-01-09T03:24:45;99383.13;;;-15.61;75.85
74169;BME280;62523;53.336;83.690;2023-01-09T03:29:46;99393.75;;;-15.86;75.67
74169;BME280;62523;53.336;83.690;2023-01-09T03:34:47;99420.13;;;-15.98;75.66
74169;BME280;62523;53.336;83.690;2023-01-09T03:39:48;99423.19;;;-16.03;75.94
74169;BME280;62523;53.336;83.690;2023-01-09T03:44:49;99414.53;;;-16.41;75.48
74169;BME280;62523;53.336;83.690;2023-01-09T03:49:51;99437.38;;;-16.55;75.45
74169;BME280;62523;53.336;83.690;2023-01-09T03:54:52;99465.09;;;-16.55;75.96
74169;BME280;62523;53.336;83.690;2023-01-09T03:59:53;99488.66;;;-16.54;76.66
74169;BME280;62523;53.336;83.690;2023-01-09T04:04:55;99498.09;;;-16.66;77.08
74169;BME280;62523;53.336;83.690;2023-01-09T04:09:56;99507.19;;;-16.85;76.96
74169;BME280;62523;53.336;83.690;2023-01-09T04:14:57;99524.84;;;-16.85;77.52
74169;BME280;62523;53.336;83.690;2023-01-09T04:19:58;99491.50;;;-17.10;77.22
74169;BME280;62523;53.336;83.690;2023-01-09T04:24:59;99520.44;;;-17.04;77.49
74169;BME280;62523;53.336;83.690;2023-01-09T04:30:00;99544.91;;;-17.01;78.53
74169;BME280;62523;53.336;83.690;2023-01-09T04:35:01;99564.81;;;-17.06;78.31
74169;BME280;62523;53.336;83.690;2023-01-09T04:40:05;99575.16;;;-17.16;78.14
74169;BME280;62523;53.336;83.690;2023-01-09T04:45:10;99601.84;;;-17.05;78.42
74169;BME280;62523;53.336;83.690;2023-01-09T04:50:11;99585.63;;;-17.38;78.01
74169;BME280;62523;53.336;83.690;2023-01-09T04:55:12;99590.09;;;-17.19;77.72
74169;BME280;62523;53.336;83.690;2023-01-09T05:00:14;99609.56;;;-17.17;77.34
74169;BME280;62523;53.336;83.690;2023-01-09T05:05:15;99607.28;;;-17.27;77.23
74169;BME280;62523;53.336;83.690;2023-01-09T05:10:16;99607.03;;;-17.17;76.97
74169;BME280;62523;53.336;83.690;2023-01-09T05:15:18;99609.28;;;-17.21;77.11
74169;BME280;62523;53.336;83.690;2023-01-09T05:20:19;99630.56;;;-17.16;77.09
74169;BME280;62523;53.336;83.690;2023-01-09T05:25:20;99641.22;;;-16.92;76.82
74169;BME280;62523;53.336;83.690;2023-01-09T05:30:21;99608.72;;;-16.87;76.12
74169;BME280;62523;53.336;83.690;2023-01-09T05:35:22;99652.50;;;-16.85;75.76
74169;BME280;62523;53.336;83.690;2023-01-09T05:40:23;99676.28;;;-17.10;76.38
74169;BME280;62523;53.336;83.690;2023-01-09T05:45:25;99662.66;;;-17.14;76.32
74169;BME280;62523;53.336;83.690;2023-01-09T05:50:26;99663.22;;;-17.33;76.78
74169;BME280;62523;53.336;83.690;2023-01-09T05:55:28;99653.03;;;-17.34;76.87
74169;BME280;62523;53.336;83.690;2023-01-09T06:00:29;99673.72;;;-17.25;76.11
74169;BME280;62523;53.336;83.690;2023-01-09T06:05:30;99690.84;;;-17.19;75.91
74169;BME280;62523;53.336;83.690;2023-01-09T06:10:31;99689.13;;;-17.20;76.02
74169;BME280;62523;53.336;83.690;2023-01-09T06:15:32;99681.69;;;-17.32;75.81
74169;BME280;62523;53.336;83.690;2023-01-09T06:20:33;99704.63;;;-17.27;76.53
74169;BME280;62523;53.336;83.690;2023-01-09T06:25:35;99706.13;;;-17.16;76.01
74169;BME280;62523;53.336;83.690;2023-01-09T06:30:37;99724.56;;;-17.17;75.56
74169;BME280;62523;53.336;83.690;2023-01-09T06:35:38;99721.44;;;-17.13;75.91
74169;BME280;62523;53.336;83.690;2023-01-09T06:40:39;99730.50;;;-17.02;75.33
74169;BME280;62523;53.336;83.690;2023-01-09T06:45:42;99743.53;;;-17.09;75.36
74169;BME280;62523;53.336;83.690;2023-01-09T06:50:43;99740.00;;;-16.98;76.09
74169;BME280;62523;53.336;83.690;2023-01-09T06:55:46;99743.44;;;-17.10;76.25
74169;BME280;62523;53.336;83.690;2023-01-09T07:00:47;99746.25;;;-16.91;76.42
74169;BME280;62523;53.336;83.690;2023-01-09T07:05:49;99762.06;;;-16.94;76.14
74169;BME280;62523;53.336;83.690;2023-01-09T07:10:50;99751.66;;;-16.85;76.07
74169;BME280;62523;53.336;83.690;2023-01-09T07:15:51;99753.59;;;-16.81;76.31
74169;BME280;62523;53.336;83.690;2023-01-09T07:20:53;99756.81;;;-16.83;75.09
74169;BME280;62523;53.336;83.690;2023-01-09T07:25:54;99758.44;;;-16.69;75.30
74169;BME280;62523;53.336;83.690;2023-01-09T07:30:57;99777.47;;;-16.74;75.78
74169;BME280;62523;53.336;83.690;2023-01-09T07:36:02;99772.91;;;-16.81;76.22
74169;BME280;62523;53.336;83.690;2023-01-09T07:41:03;99762.88;;;-16.80;76.50
74169;BME280;62523;53.336;83.690;2023-01-09T07:46:05;99777.41;;;-16.61;75.24
74169;BME280;62523;53.336;83.690;2023-01-09T07:51:06;99800.81;;;-16.63;73.08
74169;BME280;62523;53.336;83.690;2023-01-09T07:56:07;99802.78;;;-16.87;72.06
74169;BME280;62523;53.336;83.690;2023-01-09T08:01:08;99789.31;;;-17.01;71.60
74169;BME280;62523;53.336;83.690;2023-01-09T08:06:09;99819.06;;;-16.96;71.47
74169;BME280;62523;53.336;83.690;2023-01-09T08:11:11;99790.84;;;-17.18;71.09
74169;BME280;62523;53.336;83.690;2023-01-09T08:16:12;99831.78;;;-16.94;69.92
74169;BME280;62523;53.336;83.690;2023-01-09T08:21:13;99830.81;;;-16.96;70.09
74169;BME280;62523;53.336;83.690;2023-01-09T08:26:14;99830.94;;;-17.21;70.40
74169;BME280;62523;53.336;83.690;2023-01-09T08:31:16;99844.13;;;-17.25;70.93
74169;BME280;62523;53.336;83.690;2023-01-09T08:36:17;99842.19;;;-17.29;71.70
74169;BME280;62523;53.336;83.690;2023-01-09T08:41:20;99855.47;;;-17.32;72.08
74169;BME280;62523;53.336;83.690;2023-01-09T08:46:40;99838.94;;;-17.42;72.43
74169;BME280;62523;53.336;83.690;2023-01-09T08:52:01;99872.34;;;-17.31;72.15
74169;BME280;62523;53.336;83.690;2023-01-09T08:57:02;99865.53;;;-17.32;72.39
74169;BME280;62523;53.336;83.690;2023-01-09T09:02:03;99891.28;;;-17.23;72.42
74169;BME280;62523;53.336;83.690;2023-01-09T09:07:05;99892.28;;;-17.34;72.88
74169;BME280;62523;53.336;83.690;2023-01-09T09:12:06;99891.19;;;-17.51;72.40
74169;BME280;62523;53.336;83.690;2023-01-09T09:17:07;99901.38;;;-17.49;72.84
74169;BME280;62523;53.336;83.690;2023-01-09T09:22:08;99936.81;;;-17.60;72.82
74169;BME280;62523;53.336;83.690;2023-01-09T09:27:09;99934.72;;;-17.79;73.36
74169;BME280;62523;53.336;83.690;2023-01-09T09:32:11;99933.88;;;-17.92;73.29
74169;BME280;62523;53.336;83.690;2023-01-09T09:37:12;99965.28;;;-17.99;74.00
74169;BME280;62523;53.336;83.690;2023-01-09T09:53:25;100003.22;;;-18.21;75.64
74169;BME280;62523;53.336;83.690;2023-01-09T10:03:49;100002.00;;;-18.51;74.85
74169;BME280;62523;53.336;83.690;2023-01-09T10:14:02;100013.81;;;-18.62;75.67
74169;BME280;62523;53.336;83.690;2023-01-09T10:19:12;100021.59;;;-18.71;75.59
74169;BME280;62523;53.336;83.690;2023-01-09T10:40:46;100041.69;;;-19.18;76.51
74169;BME280;62523;53.336;83.690;2023-01-09T10:45:52;100041.66;;;-19.30;76.21
74169;BME280;62523;53.336;83.690;2023-01-09T10:50:55;100035.75;;;-19.42;76.78
74169;BME280;62523;53.336;83.690;2023-01-09T10:56:03;100060.97;;;-19.41;76.67
74169;BME280;62523;53.336;83.690;2023-01-09T11:01:08;100060.91;;;-19.64;76.74
74169;BME280;62523;53.336;83.690;2023-01-09T11:06:15;100071.69;;;-19.65;77.55
74169;BME280;62523;53.336;83.690;2023-01-09T11:11:33;100083.81;;;-19.71;78.31
74169;BME280;62523;53.336;83.690;2023-01-09T11:16:34;100095.56;;;-19.82;78.18
74169;BME280;62523;53.336;83.690;2023-01-09T11:21:37;100096.19;;;-19.85;78.63
74169;BME280;62523;53.336;83.690;2023-01-09T11:26:40;100109.22;;;-20.11;77.63
74169;BME280;62523;53.336;83.690;2023-01-09T11:31:51;100088.25;;;-20.23;78.52
74169;BME280;62523;53.336;83.690;2023-01-09T11:37:02;100097.53;;;-20.32;78.17
74169;BME280;62523;53.336;83.690;2023-01-09T11:42:17;100098.34;;;-20.44;77.76
74169;BME280;62523;53.336;83.690;2023-01-09T11:47:38;100110.00;;;-20.44;78.08
74169;BME280;62523;53.336;83.690;2023-01-09T11:52:39;100094.13;;;-20.55;78.40
74169;BME280;62523;53.336;83.690;2023-01-09T11:57:41;100118.66;;;-20.51;77.99
74169;BME280;62523;53.336;83.690;2023-01-09T12:03:12;100111.50;;;-20.68;77.17
74169;BME280;62523;53.336;83.690;2023-01-09T12:13:55;100130.69;;;-20.79;77.42
74169;BME280;62523;53.336;83.690;2023-01-09T12:19:07;100137.19;;;-20.91;78.06
74169;BME280;62523;53.336;83.690;2023-01-09T12:55:14;100150.34;;;-21.04;76.42
74169;BME280;62523;53.336;83.690;2023-01-09T13:00:31;100160.72;;;-21.10;75.98
74169;BME280;62523;53.336;83.690;2023-01-09T13:05:41;100143.31;;;-21.18;76.57
74169;BME280;62523;53.336;83.690;2023-01-09T13:10:50;100134.94;;;-21.29;75.78
74169;BME280;62523;53.336;83.690;2023-01-09T13:16:03;100150.34;;;-21.14;76.28
74169;BME280;62523;53.336;83.690;2023-01-09T13:21:06;100137.09;;;-21.23;76.40
74169;BME280;62523;53.336;83.690;2023-01-09T13:42:29;100159.97;;;-21.39;76.53
74169;BME280;62523;53.336;83.690;2023-01-09T13:47:45;100135.50;;;-21.43;76.75
74169;BME280;62523;53.336;83.690;2023-01-09T13:52:47;100163.47;;;-21.27;77.03
74169;BME280;62523;53.336;83.690;2023-01-09T14:08:28;100163.38;;;-21.08;75.99
74169;BME280;62523;53.336;83.690;2023-01-09T14:13:38;100147.47;;;-21.09;76.24
74169;BME280;62523;53.336;83.690;2023-01-09T14:18:49;100152.97;;;-21.23;76.30
74169;BME280;62523;53.336;83.690;2023-01-09T14:24:00;100146.59;;;-21.19;77.05
74169;BME280;62523;53.336;83.690;2023-01-09T14:34:35;100154.47;;;-21.25;76.86
74169;BME280;62523;53.336;83.690;2023-01-09T14:39:39;100171.13;;;-21.25;77.31
74169;BME280;62523;53.336;83.690;2023-01-09T14:50:04;100163.25;;;-21.30;77.05
74169;BME280;62523;53.336;83.690;2023-01-09T14:55:23;100133.84;;;-21.33;77.45
74169;BME280;62523;53.336;83.690;2023-01-09T15:00:25;100137.84;;;-21.35;77.65
74169;BME280;62523;53.336;83.690;2023-01-09T15:05:27;100142.22;;;-21.53;78.01
74169;BME280;62523;53.336;83.690;2023-01-09T15:10:33;100158.47;;;-21.27;78.06
74169;BME280;62523;53.336;83.690;2023-01-09T15:15:36;100107.06;;;-21.64;77.91
74169;BME280;62523;53.336;83.690;2023-01-09T15:20:37;100160.59;;;-21.32;77.75
74169;BME280;62523;53.336;83.690;2023-01-09T15:25:39;100157.47;;;-21.39;78.12
74169;BME280;62523;53.336;83.690;2023-01-09T15:30:41;100153.63;;;-21.46;78.06
74169;BME280;62523;53.336;83.690;2023-01-09T15:35:45;100163.22;;;-21.40;78.50
74169;BME280;62523;53.336;83.690;2023-01-09T15:40:57;100162.50;;;-21.50;78.18
74169;BME280;62523;53.336;83.690;2023-01-09T15:45:59;100155.13;;;-21.48;78.92
74169;BME280;62523;53.336;83.690;2023-01-09T15:51:12;100164.63;;;-21.54;78.89
74169;BME280;62523;53.336;83.690;2023-01-09T16:01:32;100179.06;;;-21.71;79.39
74169;BME280;62523;53.336;83.690;2023-01-09T16:06:37;100175.06;;;-21.79;79.38
74169;BME280;62523;53.336;83.690;2023-01-09T16:11:47;100168.50;;;-21.97;79.46
74169;BME280;62523;53.336;83.690;2023-01-09T16:16:53;100182.00;;;-21.95;80.06
74169;BME280;62523;53.336;83.690;2023-01-09T16:22:01;100170.19;;;-22.06;80.10
74169;BME280;62523;53.336;83.690;2023-01-09T16:27:20;100166.03;;;-22.26;80.10
74169;BME280;62523;53.336;83.690;2023-01-09T16:37:29;100174.78;;;-22.32;80.13
74169;BME280;62523;53.336;83.690;2023-01-09T16:42:33;100166.03;;;-22.56;80.08
74169;BME280;62523;53.336;83.690;2023-01-09T16:47:52;100177.16;;;-22.52;80.42
74169;BME280;62523;53.336;83.690;2023-01-09T16:52:56;100168.09;;;-22.60;80.72
74169;BME280;62523;53.336;83.690;2023-01-09T16:57:57;100173.59;;;-22.64;80.48
74169;BME280;62523;53.336;83.690;2023-01-09T17:02:58;100177.38;;;-22.78;80.81
74169;BME280;62523;53.336;83.690;2023-01-09T17:08:00;100150.44;;;-22.91;80.82
74169;BME280;62523;53.336;83.690;2023-01-09T17:13:01;100156.66;;;-22.96;80.70
74169;BME280;62523;53.336;83.690;2023-01-09T17:18:03;100183.59;;;-22.83;80.63
74169;BME280;62523;53.336;83.690;2023-01-09T17:23:06;100184.09;;;-22.96;80.70
74169;BME280;62523;53.336;83.690;2023-01-09T17:28:17;100182.44;;;-23.06;81.26
74169;BME280;62523;53.336;83.690;2023-01-09T17:33:35;100194.50;;;-23.10;81.20
74169;BME280;62523;53.336;83.690;2023-01-09T17:38:37;100195.66;;;-23.07;81.38
74169;BME280;62523;53.336;83.690;2023-01-09T17:43:38;100179.38;;;-23.31;81.59
74169;BME280;62523;53.336;83.690;2023-01-09T17:48:39;100184.44;;;-23.21;81.22
74169;BME280;62523;53.336;83.690;2023-01-09T17:53:41;100186.66;;;-23.24;81.08
74169;BME280;62523;53.336;83.690;2023-01-09T17:58:42;100165.97;;;-23.50;80.96
74169;BME280;62523;53.336;83.690;2023-01-09T18:03:46;100189.50;;;-23.38;81.16
74169;BME280;62523;53.336;83.690;2023-01-09T18:08:48;100178.31;;;-23.52;81.48
74169;BME280;62523;53.336;83.690;2023-01-09T18:13:51;100181.94;;;-23.48;81.24
74169;BME280;62523;53.336;83.690;2023-01-09T18:18:57;100189.34;;;-23.59;81.05
74169;BME280;62523;53.336;83.690;2023-01-09T18:23:58;100189.78;;;-23.63;81.20
74169;BME280;62523;53.336;83.690;2023-01-09T18:29:01;100092.28;;;-24.21;81.34
74169;BME280;62523;53.336;83.690;2023-01-09T18:34:03;100180.19;;;-23.77;80.96
74169;BME280;62523;53.336;83.690;2023-01-09T18:39:07;100188.53;;;-23.77;81.01
74169;BME280;62523;53.336;83.690;2023-01-09T18:44:08;100192.84;;;-23.84;81.65
74169;BME280;62523;53.336;83.690;2023-01-09T18:49:10;100182.31;;;-23.99;80.96
74169;BME280;62523;53.336;83.690;2023-01-09T18:54:11;100158.72;;;-24.03;81.29
74169;BME280;62523;53.336;83.690;2023-01-09T18:59:13;100202.25;;;-23.99;81.26
74169;BME280;62523;53.336;83.690;2023-01-09T19:04:14;100190.56;;;-24.18;80.73
74169;BME280;62523;53.336;83.690;2023-01-09T19:09:15;100201.28;;;-24.19;80.82
74169;BME280;62523;53.336;83.690;2023-01-09T19:14:17;100191.59;;;-24.24;80.89
74169;BME280;62523;53.336;83.690;2023-01-09T19:19:18;100203.34;;;-24.32;81.33
74169;BME280;62523;53.336;83.690;2023-01-09T19:24:19;100209.03;;;-24.33;81.39
74169;BME280;62523;53.336;83.690;2023-01-09T19:29:21;100212.84;;;-24.36;81.07
74169;BME280;62523;53.336;83.690;2023-01-09T19:34:22;100214.19;;;-24.40;81.06
74169;BME280;62523;53.336;83.690;2023-01-09T19:39:23;100210.41;;;-24.54;81.08
74169;BME280;62523;53.336;83.690;2023-01-09T19:44:25;100210.13;;;-24.66;80.69
74169;BME280;62523;53.336;83.690;2023-01-09T19:49:26;100241.63;;;-24.57;80.98
74169;BME280;62523;53.336;83.690;2023-01-09T19:54:27;100201.31;;;-24.80;80.93
74169;BME280;62523;53.336;83.690;2023-01-09T19:59:29;100250.81;;;-24.56;80.94
74169;BME280;62523;53.336;83.690;2023-01-09T20:04:31;100244.81;;;-24.76;80.67
74169;BME280;62523;53.336;83.690;2023-01-09T20:09:33;100237.91;;;-24.87;80.57
74169;BME280;62523;53.336;83.690;2023-01-09T20:14:34;100274.06;;;-24.73;80.15
74169;BME280;62523;53.336;83.690;2023-01-09T20:19:37;100212.84;;;-25.15;80.61
74169;BME280;62523;53.336;83.690;2023-01-09T20:24:39;100284.91;;;-24.82;80.30
74169;BME280;62523;53.336;83.690;2023-01-09T20:29:40;100253.25;;;-25.09;80.30
74169;BME280;62523;53.336;83.690;2023-01-09T20:34:41;100290.16;;;-24.96;80.39
74169;BME280;62523;53.336;83.690;2023-01-09T20:39:43;100269.88;;;-25.16;80.01
74169;BME280;62523;53.336;83.690;2023-01-09T20:44:44;100296.53;;;-25.24;79.84
74169;BME280;62523;53.336;83.690;2023-01-09T20:49:46;100286.38;;;-25.34;79.85
74169;BME280;62523;53.336;83.690;2023-01-09T20:54:48;100290.00;;;-25.48;79.23
74169;BME280;62523;53.336;83.690;2023-01-09T20:59:49;100300.34;;;-25.52;78.88
74169;BME280;62523;53.336;83.690;2023-01-09T21:04:50;100307.81;;;-25.52;78.65
74169;BME280;62523;53.336;83.690;2023-01-09T21:09:53;100271.31;;;-25.69;78.41
74169;BME280;62523;53.336;83.690;2023-01-09T21:14:55;100276.38;;;-25.76;78.15
74169;BME280;62523;53.336;83.690;2023-01-09T21:19:56;100303.56;;;-25.78;78.09
74169;BME280;62523;53.336;83.690;2023-01-09T21:24:58;100290.81;;;-25.90;77.55
74169;BME280;62523;53.336;83.690;2023-01-09T21:29:59;100293.28;;;-25.90;77.03
74169;BME280;62523;53.336;83.690;2023-01-09T21:35:01;100282.03;;;-26.11;76.15
74169;BME280;62523;53.336;83.690;2023-01-09T21:40:05;100310.09;;;-26.12;75.66
74169;BME280;62523;53.336;83.690;2023-01-09T21:45:14;100299.00;;;-26.31;74.56
74169;BME280;62523;53.336;83.690;2023-01-09T21:50:35;100285.00;;;-26.47;73.55
74169;BME280;62523;53.336;83.690;2023-01-09T21:55:36;100305.56;;;-26.48;72.80
74169;BME280;62523;53.336;83.690;2023-01-09T22:00:37;100297.59;;;-26.61;72.19
74169;BME280;62523;53.336;83.690;2023-01-09T22:05:39;100310.06;;;-26.52;71.43
74169;BME280;62523;53.336;83.690;2023-01-09T22:10:40;100309.59;;;-26.57;69.76
74169;BME280;62523;53.336;83.690;2023-01-09T22:15:41;100299.59;;;-26.65;69.27
74169;BME280;62523;53.336;83.690;2023-01-09T22:20:44;100298.50;;;-26.76;69.10
74169;BME280;62523;53.336;83.690;2023-01-09T22:25:46;100280.81;;;-26.79;70.15
74169;BME280;62523;53.336;83.690;2023-01-09T22:30:47;100275.88;;;-26.79;70.64
74169;BME280;62523;53.336;83.690;2023-01-09T22:35:48;100290.31;;;-26.75;71.79
74169;BME280;62523;53.336;83.690;2023-01-09T22:40:50;100287.34;;;-26.80;72.12
74169;BME280;62523;53.336;83.690;2023-01-09T22:45:59;100280.88;;;-26.86;72.16
74169;BME280;62523;53.336;83.690;2023-01-09T22:51:06;100289.34;;;-26.84;71.52
74169;BME280;62523;53.336;83.690;2023-01-09T22:56:11;100304.31;;;-26.76;71.33
74169;BME280;62523;53.336;83.690;2023-01-09T23:01:17;100295.19;;;-26.84;71.42
74169;BME280;62523;53.336;83.690;2023-01-09T23:06:20;100297.66;;;-26.84;71.56
74169;BME280;62523;53.336;83.690;2023-01-09T23:11:26;100313.97;;;-26.86;71.99
74169;BME280;62523;53.336;83.690;2023-01-09T23:16:46;100296.16;;;-26.91;72.52
74169;BME280;62523;53.336;83.690;2023-01-09T23:21:47;100300.06;;;-26.93;73.58
74169;BME280;62523;53.336;83.690;2023-01-09T23:26:48;100302.44;;;-27.01;74.78
74169;BME280;62523;53.336;83.690;2023-01-09T23:31:50;100297.19;;;-26.89;75.43
74169;BME280;62523;53.336;83.690;2023-01-09T23:36:54;100291.09;;;-26.99;75.71
74169;BME280;62523;53.336;83.690;2023-01-09T23:41:57;100297.09;;;-26.97;75.97
74169;BME280;62523;53.336;83.690;2023-01-09T23:47:17;100306.75;;;-27.08;76.47
74169;BME280;62523;53.336;83.690;2023-01-09T23:52:18;100298.53;;;-27.15;76.87
74169;BME280;62523;53.336;83.690;2023-01-09T23:57:20;100295.41;;;-27.21;77.04
